createdAt,value
2022-08-05T00:01:56.699Z,100410.06
2022-08-05T00:06:02.064Z,100416.78
2022-08-05T00:08:35.624Z,100416.81
2022-08-05T00:11:49.144Z,100418.44
2022-08-05T00:14:57.376Z,100414.84
2022-08-05T00:17:59.826Z,100406.69
2022-08-05T00:21:06.446Z,100414.62
2022-08-05T00:24:10.301Z,100417.31
2022-08-05T00:27:16.543Z,100418.69
2022-08-05T00:30:32.158Z,100407.59
2022-08-05T00:34:56.409Z,100416.97
2022-08-05T00:37:20.186Z,100411.81
2022-08-05T00:40:27.797Z,100425.47
2022-08-05T00:43:31.536Z,100411.66
2022-08-05T00:46:54.145Z,100400.00
2022-08-05T00:50:04.993Z,100408.34
2022-08-05T00:53:09.830Z,100403.28
2022-08-05T00:56:30.392Z,100410.06
2022-08-05T00:59:42.083Z,100408.16
2022-08-05T01:02:46.916Z,100401.72
2022-08-05T01:05:54.497Z,100395.78
2022-08-05T01:08:57.357Z,100398.12
2022-08-05T01:12:18.071Z,100402.81
2022-08-05T01:15:36.307Z,100402.31
2022-08-05T01:18:43.089Z,100398.53
2022-08-05T01:22:10.925Z,100399.50
2022-08-05T01:25:40.825Z,100394.28
2022-08-05T01:28:47.160Z,100394.28
2022-08-05T01:31:52.994Z,100394.34
2022-08-05T01:34:59.746Z,100393.37
2022-08-05T01:38:04.376Z,100395.69
2022-08-05T01:41:08.076Z,100393.19
2022-08-05T01:44:12.787Z,100392.50
2022-08-05T01:47:21.478Z,100404.13
2022-08-05T01:50:30.291Z,100402.84
2022-08-05T01:53:57.102Z,100408.72
2022-08-05T01:58:12.770Z,100396.81
2022-08-05T02:00:30.589Z,100399.91
2022-08-05T02:03:37.685Z,100402.69
2022-08-05T02:06:42.052Z,100407.34
2022-08-05T02:09:47.582Z,100413.41
2022-08-05T02:12:54.680Z,100409.09
2022-08-05T02:16:16.456Z,100406.31
2022-08-05T02:19:28.001Z,100409.25
2022-08-05T02:22:35.336Z,100403.31
2022-08-05T02:25:50.059Z,100405.16
2022-08-05T02:28:56.069Z,100400.50
2022-08-05T02:32:04.881Z,100397.06
2022-08-05T02:35:22.090Z,100398.00
2022-08-05T02:38:35.111Z,100396.97
2022-08-05T02:41:57.922Z,100391.88
2022-08-05T02:45:03.835Z,100392.44
2022-08-05T02:48:12.568Z,100394.47
2022-08-05T02:51:17.003Z,100393.97
2022-08-05T02:54:35.958Z,100394.47
2022-08-05T02:58:10.618Z,100402.38
2022-08-05T03:01:03.906Z,100389.78
2022-08-05T03:04:14.151Z,100390.75
2022-08-05T03:07:40.456Z,100385.47
2022-08-05T03:11:41.212Z,100387.94
2022-08-05T03:14:08.226Z,100382.13
2022-08-05T03:17:10.527Z,100389.91
2022-08-05T03:20:13.559Z,100377.78
2022-08-05T03:23:16.117Z,100375.87
2022-08-05T03:26:31.352Z,100379.00
2022-08-05T03:29:45.796Z,100372.53
2022-08-05T03:32:58.273Z,100371.31
2022-08-05T03:36:01.518Z,100379.66
2022-08-05T03:39:12.927Z,100376.31
2022-08-05T03:42:22.131Z,100374.19
2022-08-05T03:45:29.675Z,100383.66
2022-08-05T03:48:51.758Z,100380.69
2022-08-05T03:52:48.658Z,100373.78
2022-08-05T03:56:04.085Z,100370.38
2022-08-05T03:58:55.700Z,100378.50
2022-08-05T04:02:01.900Z,100385.87
2022-08-05T04:05:09.755Z,100384.03
2022-08-05T04:08:14.765Z,100380.97
2022-08-05T04:11:47.403Z,100390.63
2022-08-05T04:14:54.435Z,100386.78
2022-08-05T04:18:09.758Z,100395.78
2022-08-05T04:21:12.572Z,100389.31
2022-08-05T04:24:34.982Z,100386.59
2022-08-05T04:27:43.756Z,100390.50
2022-08-05T04:31:00.884Z,100386.84
2022-08-05T04:34:19.967Z,100382.34
2022-08-05T04:38:02.272Z,100390.06
2022-08-05T04:40:50.944Z,100388.63
2022-08-05T04:43:53.459Z,100393.06
2022-08-05T04:46:58.875Z,100396.22
2022-08-05T04:50:11.600Z,100389.63
2022-08-05T04:53:16.756Z,100397.34
2022-08-05T04:56:34.568Z,100385.56
2022-08-05T04:59:40.823Z,100399.09
2022-08-05T05:02:43.605Z,100387.06
2022-08-05T05:06:36.694Z,100388.72
2022-08-05T05:09:08.282Z,100385.84
2022-08-05T05:12:10.415Z,100385.13
2022-08-05T05:15:14.022Z,100392.84
2022-08-05T05:18:31.559Z,100382.84
2022-08-05T05:21:35.979Z,100384.09
2022-08-05T05:24:57.037Z,100373.56
2022-08-05T05:28:01.685Z,100382.41
2022-08-05T05:31:05.681Z,100389.09
2022-08-05T05:34:11.216Z,100380.25
2022-08-05T05:37:15.118Z,100375.38
2022-08-05T05:40:20.323Z,100370.34
2022-08-05T05:43:54.246Z,100379.44
2022-08-05T05:46:45.430Z,100377.94
2022-08-05T05:49:56.441Z,100385.87
2022-08-05T05:52:59.649Z,100383.19
2022-08-05T05:56:03.181Z,100386.19
2022-08-05T05:59:07.767Z,100371.63
2022-08-05T06:02:10.096Z,100378.03
2022-08-05T06:05:16.920Z,100376.09
2022-08-05T06:08:32.461Z,100377.75
2022-08-05T06:11:35.602Z,100374.03
2022-08-05T06:14:44.363Z,100380.53
2022-08-05T06:17:52.950Z,100380.03
2022-08-05T06:20:57.090Z,100379.66
2022-08-05T06:23:59.730Z,100383.63
2022-08-05T06:27:04.450Z,100378.59
2022-08-05T06:30:17.983Z,100378.09
2022-08-05T06:33:33.409Z,100377.62
2022-08-05T06:37:56.462Z,100387.59
2022-08-05T06:41:08.249Z,100377.06
2022-08-05T06:44:11.363Z,100373.25
2022-08-05T06:48:11.318Z,100378.88
2022-08-05T06:50:35.812Z,100377.53
2022-08-05T06:53:39.271Z,100381.38
2022-08-05T06:56:42.134Z,100381.44
2022-08-05T06:59:58.309Z,100376.41
2022-08-05T07:03:00.528Z,100377.28
2022-08-05T07:06:06.101Z,100368.53
2022-08-05T07:09:16.895Z,100371.09
2022-08-05T07:12:40.987Z,100370.62
2022-08-05T07:16:12.131Z,100371.28
2022-08-05T07:22:56.988Z,100373.66
2022-08-05T07:26:01.437Z,100364.19
2022-08-05T07:29:04.570Z,100370.25
2022-08-05T07:32:07.266Z,100361.75
2022-08-05T07:36:04.716Z,100357.09
2022-08-05T07:38:42.765Z,100355.09
2022-08-05T07:42:14.488Z,100350.47
2022-08-05T07:45:09.395Z,100349.91
2022-08-05T07:48:13.295Z,100356.03
2022-08-05T07:51:23.343Z,100349.09
2022-08-05T07:54:41.139Z,100349.22
2022-08-05T07:58:02.155Z,100341.22
2022-08-05T08:01:06.484Z,100344.34
2022-08-05T08:04:14.948Z,100350.66
2022-08-05T08:07:22.185Z,100352.84
2022-08-05T08:10:26.822Z,100352.44
2022-08-05T08:13:29.540Z,100350.66
2022-08-05T08:16:50.863Z,100346.94
2022-08-05T08:20:23.516Z,100347.91
2022-08-05T08:24:03.591Z,100348.03
2022-08-05T08:26:41.360Z,100347.19
2022-08-05T08:30:05.480Z,100349.88
2022-08-05T08:33:13.920Z,100342.19
2022-08-05T08:36:38.556Z,100340.31
2022-08-05T08:39:49.322Z,100339.22
2022-08-05T08:42:54.753Z,100345.28
2022-08-05T08:46:00.718Z,100345.16
2022-08-05T08:50:05.991Z,100332.94
2022-08-05T08:52:32.188Z,100336.06
2022-08-05T08:56:04.015Z,100332.03
2022-08-05T08:58:59.304Z,100333.75
2022-08-05T09:02:08.615Z,100332.91
2022-08-05T09:05:17.278Z,100332.03
2022-08-05T09:08:27.502Z,100337.12
2022-08-05T09:11:52.889Z,100322.94
2022-08-05T09:15:04.804Z,100325.31
2022-08-05T09:18:09.454Z,100315.16
2022-08-05T09:22:13.506Z,100322.09
2022-08-05T09:24:36.368Z,100316.78
2022-08-05T09:28:04.271Z,100310.16
2022-08-05T09:31:43.508Z,100315.94
2022-08-05T09:34:51.915Z,100302.19
2022-08-05T09:38:17.423Z,100305.63
2022-08-05T09:41:19.404Z,100302.88
2022-08-05T09:44:36.790Z,100287.94
2022-08-05T09:47:55.556Z,100292.38
2022-08-05T09:51:14.906Z,100295.91
2022-08-05T09:54:31.234Z,100291.22
2022-08-05T09:57:43.689Z,100286.94
2022-08-05T10:01:14.561Z,100283.75
2022-08-05T10:04:18.512Z,100289.59
2022-08-05T10:08:35.947Z,100277.94
2022-08-05T10:11:16.478Z,100274.59
2022-08-05T10:14:32.144Z,100270.22
2022-08-05T10:17:37.354Z,100276.62
2022-08-05T10:20:47.692Z,100268.75
2022-08-05T10:23:59.297Z,100258.53
2022-08-05T10:27:02.864Z,100257.97
2022-08-05T10:31:20.213Z,100254.44
2022-08-05T10:33:35.291Z,100254.56
2022-08-05T10:36:41.015Z,100251.84
2022-08-05T10:39:59.194Z,100242.62
2022-08-05T10:43:35.918Z,100240.47
2022-08-05T10:46:54.114Z,100244.66
2022-08-05T10:50:20.727Z,100242.78
2022-08-05T10:53:58.438Z,100233.69
2022-08-05T10:57:03.706Z,100233.25
2022-08-05T11:00:23.387Z,100242.88
2022-08-05T11:03:27.140Z,100235.22
2022-08-05T11:06:31.201Z,100222.59
2022-08-05T11:09:46.340Z,100224.34
2022-08-05T11:12:54.491Z,100223.78
2022-08-05T11:16:22.305Z,100219.38
2022-08-05T11:20:10.893Z,100218.78
2022-08-05T11:23:26.350Z,100211.78
2022-08-05T11:26:49.757Z,100208.31
2022-08-05T11:30:00.256Z,100207.31
2022-08-05T11:33:44.219Z,100197.78
2022-08-05T11:36:53.026Z,100201.31
2022-08-05T11:40:02.971Z,100204.13
2022-08-05T11:43:06.466Z,100200.16
2022-08-05T11:46:23.358Z,100203.44
2022-08-05T11:49:34.008Z,100195.59
2022-08-05T11:52:36.691Z,100194.19
2022-08-05T11:55:56.958Z,100204.19
2022-08-05T11:58:59.548Z,100205.00
2022-08-05T12:02:06.332Z,100207.41
2022-08-05T12:05:36.297Z,100195.91
2022-08-05T12:09:00.601Z,100195.84
2022-08-05T12:12:05.111Z,100195.03
2022-08-05T12:15:38.120Z,100184.53
2022-08-05T12:18:41.093Z,100193.22
2022-08-05T12:21:49.449Z,100183.78
2022-08-05T12:24:52.996Z,100181.56
2022-08-05T12:27:55.379Z,100177.19
2022-08-05T12:31:02.319Z,100189.50
2022-08-05T12:34:07.903Z,100186.28
2022-08-05T12:37:26.954Z,100179.47
2022-08-05T12:40:39.752Z,100175.16
2022-08-05T12:43:58.690Z,100173.50
2022-08-05T12:47:02.004Z,100167.66
2022-08-05T12:50:23.863Z,100168.50
2022-08-05T12:53:37.146Z,100165.84
2022-08-05T12:56:43.184Z,100159.66
2022-08-05T13:01:57.149Z,100157.78
2022-08-05T13:03:18.228Z,100154.16
2022-08-05T13:06:20.434Z,100161.44
2022-08-05T13:09:28.006Z,100144.59
2022-08-05T13:12:30.305Z,100139.94
2022-08-05T13:15:41.325Z,100139.56
2022-08-05T13:18:59.376Z,100140.50
2022-08-05T13:22:01.805Z,100123.56
2022-08-05T13:25:19.017Z,100125.78
2022-08-05T13:28:24.561Z,100127.25
2022-08-05T13:31:33.924Z,100120.91
2022-08-05T13:34:50.998Z,100114.75
2022-08-05T13:37:55.557Z,100119.94
2022-08-05T13:41:00.021Z,100117.00
2022-08-05T13:44:03.545Z,100104.81
2022-08-05T13:47:08.975Z,100104.94
2022-08-05T13:50:16.523Z,100094.53
2022-08-05T13:53:19.369Z,100100.56
2022-08-05T13:56:21.865Z,100093.59
2022-08-05T13:59:27.123Z,100089.31
2022-08-05T14:02:31.386Z,100082.59
2022-08-05T14:06:24.820Z,100084.75
2022-08-05T14:08:59.447Z,100078.59
2022-08-05T14:12:18.210Z,100082.13
2022-08-05T14:16:06.972Z,100070.97
2022-08-05T14:18:54.118Z,100070.19
2022-08-05T14:22:08.761Z,100061.75
2022-08-05T14:25:21.605Z,100070.22
2022-08-05T14:28:28.610Z,100066.44
2022-08-05T14:32:02.246Z,100066.97
2022-08-05T14:34:56.964Z,100058.69
2022-08-05T14:38:01.054Z,100055.16
2022-08-05T14:41:06.600Z,100051.25
2022-08-05T14:44:20.438Z,100053.38
2022-08-05T14:48:02.633Z,100045.44
2022-08-05T14:50:47.317Z,100042.84
2022-08-05T14:54:27.171Z,100055.31
2022-08-05T14:57:13.800Z,100048.84
2022-08-05T15:00:16.099Z,100035.47
2022-08-05T15:03:23.035Z,100040.72
2022-08-05T15:06:28.095Z,100036.09
2022-08-05T15:09:52.097Z,100031.81
2022-08-05T15:13:03.704Z,100033.53
2022-08-05T15:16:06.825Z,100037.09
2022-08-05T15:19:23.180Z,100029.06
2022-08-05T15:22:26.934Z,100032.06
2022-08-05T15:25:51.615Z,100032.25
2022-08-05T15:28:52.380Z,100020.84
2022-08-05T15:31:54.519Z,100019.75
2022-08-05T15:34:58.221Z,100015.03
2022-08-05T15:38:31.935Z,100017.91
2022-08-05T15:41:24.645Z,100013.53
2022-08-05T15:44:46.220Z,100010.50
2022-08-05T15:47:48.673Z,100005.44
2022-08-05T15:50:57.407Z,99999.34
2022-08-05T15:53:59.946Z,100003.59
2022-08-05T15:57:03.241Z,100002.56
2022-08-05T16:00:10.613Z,100002.00
2022-08-05T16:03:13.687Z,100003.06
2022-08-05T16:06:20.315Z,99997.59
2022-08-05T16:09:24.102Z,99993.50
2022-08-05T16:12:26.836Z,100000.28
2022-08-05T16:15:32.462Z,99999.00
2022-08-05T16:18:34.931Z,100006.19
2022-08-05T16:22:01.113Z,100006.84
2022-08-05T16:25:09.524Z,100000.97
2022-08-05T16:28:13.564Z,100000.16
2022-08-05T16:31:17.815Z,100002.44
2022-08-05T16:34:23.066Z,100010.75
2022-08-05T16:38:02.896Z,100002.47
2022-08-05T16:40:55.624Z,99998.72
2022-08-05T16:44:02.094Z,99998.12
2022-08-05T16:47:04.583Z,100002.31
2022-08-05T16:50:07.091Z,99993.50
2022-08-05T16:53:12.690Z,99996.03
2022-08-05T16:56:26.391Z,99998.28
2022-08-05T16:59:30.659Z,99993.87
2022-08-05T17:02:33.031Z,99993.91
2022-08-05T17:05:37.094Z,99998.03
2022-08-05T17:08:52.180Z,99996.34
2022-08-05T17:11:59.984Z,99993.28
2022-08-05T17:15:03.337Z,100001.72
2022-08-05T17:18:05.735Z,99995.91
2022-08-05T17:21:16.424Z,99996.38
2022-08-05T17:24:35.087Z,100003.41
2022-08-05T17:27:40.931Z,99998.91
2022-08-05T17:30:51.845Z,100006.78
2022-08-05T17:33:55.593Z,100005.78
2022-08-05T17:37:00.386Z,100002.34
2022-08-05T17:40:04.573Z,100010.41
2022-08-05T17:43:12.772Z,100010.81
2022-08-05T17:46:18.395Z,100004.59
2022-08-05T17:49:20.965Z,100012.66
2022-08-05T17:52:26.359Z,100002.59
2022-08-05T17:55:38.001Z,100011.19
2022-08-05T17:58:42.217Z,100007.50
2022-08-05T18:01:50.188Z,100008.44
2022-08-05T18:04:53.605Z,100004.19
2022-08-05T18:07:57.402Z,100008.09
2022-08-05T18:10:59.983Z,100019.13
2022-08-05T18:14:04.284Z,100011.91
2022-08-05T18:18:00.523Z,100013.63
2022-08-05T18:20:31.386Z,100013.44
2022-08-05T18:23:45.537Z,100011.09
2022-08-05T18:26:48.167Z,100012.00
2022-08-05T18:29:54.557Z,100005.78
2022-08-05T18:33:00.376Z,100011.91
2022-08-05T18:36:11.870Z,100015.38
2022-08-05T18:39:41.933Z,100019.81
2022-08-05T18:42:40.805Z,100026.63
2022-08-05T18:45:43.923Z,100028.06
2022-08-05T18:48:51.785Z,100030.94
2022-08-05T18:52:13.256Z,100026.00
2022-08-05T18:55:15.651Z,100032.06
2022-08-05T18:58:18.582Z,100029.12
2022-08-05T19:01:47.808Z,100034.97
2022-08-05T19:05:01.344Z,100036.75
2022-08-05T19:08:15.279Z,100038.72
2022-08-05T19:11:27.836Z,100028.19
2022-08-05T19:14:52.397Z,100033.81
2022-08-05T19:18:08.198Z,100033.31
2022-08-05T19:21:13.021Z,100037.47
2022-08-05T19:24:15.142Z,100038.31
2022-08-05T19:27:17.502Z,100039.25
2022-08-05T19:30:21.801Z,100028.59
2022-08-05T19:33:33.947Z,100051.41
2022-08-05T19:36:38.462Z,100040.28
2022-08-05T19:39:45.911Z,100046.41
2022-08-05T19:43:04.683Z,100044.25
2022-08-05T19:46:16.508Z,100043.91
2022-08-05T19:49:30.959Z,100043.84
2022-08-05T19:52:33.321Z,100043.16
2022-08-05T19:56:14.954Z,100035.31
2022-08-05T19:58:57.769Z,100040.75
2022-08-05T20:02:19.993Z,100039.69
2022-08-05T20:05:24.444Z,100044.84
2022-08-05T20:08:27.379Z,100059.62
2022-08-05T20:11:30.808Z,100059.12
2022-08-05T20:14:39.904Z,100060.31
2022-08-05T20:17:42.322Z,100060.41
2022-08-05T20:20:46.941Z,100061.63
2022-08-05T20:23:53.136Z,100066.56
2022-08-05T20:26:55.546Z,100060.97
2022-08-05T20:29:59.483Z,100066.94
2022-08-05T20:33:02.271Z,100077.41
2022-08-05T20:36:04.742Z,100083.47
2022-08-05T20:39:06.975Z,100079.69
2022-08-05T20:42:15.303Z,100080.00
2022-08-05T20:45:23.939Z,100085.56
2022-08-05T20:48:51.306Z,100078.75
2022-08-05T20:51:54.647Z,100087.38
2022-08-05T20:54:59.383Z,100087.69
2022-08-05T20:58:02.251Z,100089.78
2022-08-05T21:01:05.707Z,100093.63
2022-08-05T21:04:10.514Z,100098.41
2022-08-05T21:07:13.913Z,100089.84
2022-08-05T21:10:16.093Z,100094.75
2022-08-05T21:13:26.133Z,100087.44
2022-08-05T21:16:40.594Z,100092.34
2022-08-05T21:19:48.066Z,100097.63
2022-08-05T21:22:52.723Z,100090.28
2022-08-05T21:25:57.342Z,100096.62
2022-08-05T21:29:03.803Z,100104.44
2022-08-05T21:32:06.485Z,100099.59
2022-08-05T21:35:18.259Z,100106.72
2022-08-05T21:38:31.265Z,100102.78
2022-08-05T21:41:34.346Z,100105.34
2022-08-05T21:44:37.989Z,100102.66
2022-08-05T21:47:57.111Z,100104.59
2022-08-05T21:51:00.257Z,100111.97
2022-08-05T21:54:03.739Z,100118.47
2022-08-05T21:57:29.497Z,100106.62
2022-08-05T22:00:28.745Z,100109.78
2022-08-05T22:03:52.200Z,100100.16
2022-08-05T22:06:54.192Z,100118.34
2022-08-05T22:09:59.692Z,100113.84
2022-08-05T22:13:08.697Z,100116.78
2022-08-05T22:16:41.244Z,100116.78
2022-08-05T22:20:02.747Z,100116.19
2022-08-05T22:24:03.117Z,100113.91
2022-08-05T22:27:06.941Z,100118.50
2022-08-05T22:30:15.373Z,100110.59
2022-08-05T22:33:19.593Z,100120.84
2022-08-05T22:36:41.974Z,100114.13
2022-08-05T22:39:45.188Z,100112.50
2022-08-05T22:42:58.216Z,100116.91
2022-08-05T22:46:01.801Z,100111.31
2022-08-05T22:49:23.089Z,100112.16
2022-08-05T22:52:34.344Z,100107.81
2022-08-05T22:55:56.713Z,100107.00
2022-08-05T22:59:04.109Z,100106.56
2022-08-05T23:02:29.742Z,100114.53
2022-08-05T23:05:36.050Z,100107.25
2022-08-05T23:08:38.782Z,100116.19
2022-08-05T23:11:41.456Z,100111.00
2022-08-05T23:14:49.366Z,100111.41
2022-08-05T23:18:00.877Z,100103.06
2022-08-05T23:21:04.924Z,100103.50
2022-08-05T23:24:11.308Z,100109.75
2022-08-05T23:27:14.575Z,100110.78
2022-08-05T23:30:17.796Z,100106.81
2022-08-05T23:33:22.275Z,100106.41
2022-08-05T23:36:40.161Z,100104.13
2022-08-05T23:39:54.441Z,100100.16
2022-08-05T23:42:57.019Z,100092.69
2022-08-05T23:45:59.409Z,100097.50
2022-08-05T23:49:15.696Z,100100.19
2022-08-05T23:52:32.639Z,100101.03
2022-08-05T23:55:38.526Z,100098.31
2022-08-05T23:58:43.941Z,100087.09
